Time;durP1;ratioP1;P1;durP2;ratioP2;P2;SDS_P1;SDS_P2;PMS_P1;PMS_P2;Temp;Humidity;BMP_temperature;BMP_pressure;BME280_temperature;BME280_humidity;BME280_pressure;Samples;Min_cycle;Max_cycle;Signal;HPM_P1;HPM_P2
2023/08/04 00:01:57;;;;;;;3.53;1.57;;;;;;;;;;5103627;27;20269;-45
2023/08/04 00:04:22;;;;;;;2.83;1.17;;;;;;;;;;5108568;27;20678;-46
2023/08/04 00:06:48;;;;;;;3.77;1.53;;;;;;;;;;5083981;27;20315;-46
2023/08/04 00:09:13;;;;;;;4.07;1.67;;;;;;;;;;5097658;27;20270;-45
2023/08/04 00:11:38;;;;;;;2.10;1.23;;;;;;;;;;5091185;27;20032;-45
2023/08/04 00:14:04;;;;;;;1.42;0.93;;;;;;;;;;5106775;27;20114;-46
2023/08/04 00:16:29;;;;;;;4.07;1.30;;;;;;;;;;5105518;27;20433;-46
2023/08/04 00:18:54;;;;;;;2.67;1.20;;;;;;;;;;5092981;28;20292;-45
2023/08/04 00:21:19;;;;;;;2.67;1.50;;;;;;;;;;5100701;27;20848;-47
2023/08/04 00:23:45;;;;;;;4.43;1.10;;;;;;;;;;5110365;27;20039;-47
2023/08/04 00:26:10;;;;;;;2.63;1.23;;;;;;;;;;5105901;28;20278;-46
2023/08/04 00:28:35;;;;;;;3.65;1.40;;;;;;;;;;5107080;27;20280;-45
2023/08/04 00:31:01;;;;;;;3.05;1.80;;;;;;;;;;5107621;28;20047;-46
2023/08/04 00:33:26;;;;;;;6.65;1.30;;;;;;;;;;5107442;27;20311;-45
2023/08/04 00:35:51;;;;;;;5.73;1.50;;;;;;;;;;5107651;27;20497;-46
2023/08/04 00:38:17;;;;;;;1.70;1.08;;;;;;;;;;5096886;28;20030;-46
2023/08/04 00:40:42;;;;;;;2.53;1.40;;;;;;;;;;5095485;28;20026;-45
2023/08/04 00:43:07;;;;;;;1.67;1.13;;;;;;;;;;5109379;28;20019;-45
2023/08/04 00:45:33;;;;;;;3.80;1.40;;;;;;;;;;5083284;28;20488;-46
2023/08/04 00:47:58;;;;;;;3.35;1.52;;;;;;;;;;5106477;28;20046;-46
2023/08/04 00:50:24;;;;;;;2.85;1.75;;;;;;;;;;5102346;28;20022;-45
2023/08/04 00:52:50;;;;;;;3.03;1.30;;;;;;;;;;5099269;28;20023;-46
2023/08/04 00:55:16;;;;;;;2.35;1.70;;;;;;;;;;5103697;28;20874;-45
2023/08/04 00:57:42;;;;;;;2.72;1.10;;;;;;;;;;5090931;28;20026;-45
2023/08/04 01:00:08;;;;;;;3.10;1.48;;;;;;;;;;5092094;28;20111;-46
2023/08/04 01:02:34;;;;;;;5.03;1.40;;;;;;;;;;5086541;28;20024;-45
2023/08/04 01:05:00;;;;;;;4.85;1.50;;;;;;;;;;5097486;28;20089;-48
2023/08/04 01:07:27;;;;;;;2.65;1.55;;;;;;;;;;5098508;28;20084;-46
2023/08/04 01:09:52;;;;;;;3.42;1.50;;;;;;;;;;5098655;28;20042;-46
2023/08/04 01:12:41;;;;;;;2.57;1.40;;;;;;;;;;5077085;28;20031;-46
2023/08/04 01:15:07;;;;;;;2.95;1.20;;;;;;;;;;5102391;27;20035;-45
2023/08/04 01:17:32;;;;;;;3.22;1.45;;;;;;;;;;5100085;28;20039;-46
2023/08/04 01:19:58;;;;;;;8.07;1.70;;;;;;;;;;5107440;28;20040;-46
2023/08/04 01:22:24;;;;;;;4.40;1.63;;;;;;;;;;5095097;28;20272;-45
2023/08/04 01:24:50;;;;;;;3.30;1.73;;;;;;;;;;5091738;28;20016;-46
2023/08/04 01:27:17;;;;;;;4.80;1.50;;;;;;;;;;5097981;28;20108;-47
2023/08/04 01:29:44;;;;;;;2.67;1.33;;;;;;;;;;5099396;28;20035;-45
2023/08/04 01:32:09;;;;;;;2.58;1.88;;;;;;;;;;5089497;28;20024;-46
2023/08/04 01:34:35;;;;;;;4.20;1.73;;;;;;;;;;5092026;28;20046;-45
2023/08/04 01:37:00;;;;;;;3.87;1.70;;;;;;;;;;5085061;28;20040;-45
2023/08/04 01:39:25;;;;;;;11.73;2.83;;;;;;;;;;5107187;28;20270;-45
2023/08/04 01:41:51;;;;;;;3.90;1.60;;;;;;;;;;5110772;27;20277;-46
2023/08/04 01:44:16;;;;;;;6.00;2.20;;;;;;;;;;5108234;27;20027;-48
2023/08/04 01:46:41;;;;;;;3.47;1.70;;;;;;;;;;5101328;27;20063;-45
2023/08/04 01:49:07;;;;;;;3.10;1.60;;;;;;;;;;5086502;28;20054;-46
2023/08/04 01:51:32;;;;;;;3.73;1.43;;;;;;;;;;5105270;27;20770;-46
2023/08/04 01:53:57;;;;;;;3.33;1.60;;;;;;;;;;5102185;27;20309;-45
2023/08/04 01:56:22;;;;;;;4.03;1.83;;;;;;;;;;5097116;27;20047;-46
2023/08/04 01:58:48;;;;;;;2.47;1.60;;;;;;;;;;5090369;27;20038;-46
2023/08/04 02:01:13;;;;;;;5.17;1.97;;;;;;;;;;5101167;28;20300;-46
2023/08/04 02:03:38;;;;;;;3.83;1.50;;;;;;;;;;5105436;27;20403;-46
2023/08/04 02:06:04;;;;;;;6.33;1.87;;;;;;;;;;5093211;27;20027;-47
2023/08/04 02:08:29;;;;;;;5.43;2.08;;;;;;;;;;5101145;27;20118;-46
2023/08/04 02:10:54;;;;;;;4.00;1.70;;;;;;;;;;5102991;27;20031;-45
2023/08/04 02:13:19;;;;;;;3.50;1.80;;;;;;;;;;5106000;27;20030;-46
2023/08/04 02:15:45;;;;;;;3.40;1.73;;;;;;;;;;5104118;27;20028;-45
2023/08/04 02:18:10;;;;;;;3.10;1.70;;;;;;;;;;5107928;27;20791;-45
2023/08/04 02:20:35;;;;;;;2.40;1.50;;;;;;;;;;5102578;27;20281;-46
2023/08/04 02:23:00;;;;;;;6.30;1.97;;;;;;;;;;5108703;27;20027;-46
2023/08/04 02:25:26;;;;;;;3.90;1.60;;;;;;;;;;5107640;27;20430;-45
2023/08/04 02:27:51;;;;;;;2.47;1.67;;;;;;;;;;5112381;27;20011;-45
2023/08/04 02:30:16;;;;;;;5.67;1.93;;;;;;;;;;5097533;27;20036;-46
2023/08/04 02:32:41;;;;;;;5.70;2.07;;;;;;;;;;5098923;27;20369;-45
2023/08/04 02:35:07;;;;;;;4.35;1.65;;;;;;;;;;5091283;27;20024;-46
2023/08/04 02:37:32;;;;;;;3.80;1.67;;;;;;;;;;5104068;27;20100;-46
2023/08/04 02:39:58;;;;;;;3.70;1.60;;;;;;;;;;5099240;27;20485;-46
2023/08/04 02:42:24;;;;;;;6.80;1.70;;;;;;;;;;5101429;27;20270;-45
2023/08/04 02:44:54;;;;;;;3.15;1.58;;;;;;;;;;5101467;27;20026;-46
2023/08/04 02:47:19;;;;;;;6.22;1.70;;;;;;;;;;5104808;27;20097;-47
2023/08/04 02:49:44;;;;;;;2.87;1.60;;;;;;;;;;5101010;27;20475;-46
2023/08/04 02:52:14;;;;;;;3.97;1.93;;;;;;;;;;5100546;27;20037;-45
2023/08/04 02:54:39;;;;;;;4.53;1.48;;;;;;;;;;5102889;27;20395;-46
2023/08/04 02:57:05;;;;;;;4.80;1.90;;;;;;;;;;5105000;27;20020;-48
2023/08/04 02:59:30;;;;;;;2.88;1.73;;;;;;;;;;5104101;27;20269;-46
2023/08/04 03:01:55;;;;;;;7.03;1.87;;;;;;;;;;5107559;27;20655;-45
2023/08/04 03:04:20;;;;;;;3.83;1.73;;;;;;;;;;5102796;27;20068;-45
2023/08/04 03:06:45;;;;;;;6.13;2.10;;;;;;;;;;5094195;27;20034;-46
2023/08/04 03:09:11;;;;;;;5.93;2.00;;;;;;;;;;5101717;27;20474;-45
2023/08/04 03:11:36;;;;;;;6.90;2.35;;;;;;;;;;5106709;27;20132;-46
2023/08/04 03:14:02;;;;;;;4.75;1.90;;;;;;;;;;5106474;27;21641;-45
2023/08/04 03:16:27;;;;;;;5.50;2.08;;;;;;;;;;5102331;27;20028;-45
2023/08/04 03:18:52;;;;;;;5.13;1.73;;;;;;;;;;5098147;27;20038;-46
2023/08/04 03:21:18;;;;;;;9.60;2.60;;;;;;;;;;5104862;27;20289;-45
2023/08/04 03:23:43;;;;;;;4.95;1.88;;;;;;;;;;5089005;27;20031;-46
2023/08/04 03:26:08;;;;;;;2.97;1.92;;;;;;;;;;5098998;27;20038;-46
2023/08/04 03:28:34;;;;;;;5.30;2.00;;;;;;;;;;5097487;27;20051;-45
2023/08/04 03:30:59;;;;;;;4.83;2.40;;;;;;;;;;5098871;27;20035;-46
2023/08/04 03:33:24;;;;;;;7.13;1.97;;;;;;;;;;5104170;27;20510;-46
2023/08/04 03:35:50;;;;;;;7.40;2.00;;;;;;;;;;5103996;27;20372;-46
2023/08/04 03:38:15;;;;;;;5.15;2.33;;;;;;;;;;5104660;27;20771;-45
2023/08/04 03:40:41;;;;;;;5.37;2.43;;;;;;;;;;5103191;27;20027;-46
2023/08/04 03:43:06;;;;;;;6.25;2.67;;;;;;;;;;5102800;27;20024;-46
2023/08/04 03:45:32;;;;;;;7.35;3.30;;;;;;;;;;5097851;27;20103;-47
2023/08/04 03:47:57;;;;;;;8.30;2.50;;;;;;;;;;5106960;27;20042;-45
2023/08/04 03:50:23;;;;;;;4.53;2.77;;;;;;;;;;5103832;27;20051;-48
2023/08/04 03:52:48;;;;;;;4.15;2.45;;;;;;;;;;5092441;27;20627;-46
2023/08/04 03:55:13;;;;;;;6.30;2.27;;;;;;;;;;5102359;27;20028;-45
2023/08/04 03:57:39;;;;;;;5.23;2.23;;;;;;;;;;5103160;27;20388;-45
2023/08/04 04:00:06;;;;;;;6.40;2.50;;;;;;;;;;5106549;27;20280;-45
2023/08/04 04:02:31;;;;;;;3.05;2.30;;;;;;;;;;5103192;27;20273;-45
2023/08/04 04:04:56;;;;;;;7.20;2.77;;;;;;;;;;5103816;27;20401;-44
2023/08/04 04:07:21;;;;;;;5.83;2.30;;;;;;;;;;5099138;27;20318;-48
2023/08/04 04:09:47;;;;;;;3.90;2.40;;;;;;;;;;5103530;27;20616;-48
2023/08/04 04:12:12;;;;;;;3.85;2.25;;;;;;;;;;5101984;27;20288;-46
2023/08/04 04:14:37;;;;;;;7.80;2.63;;;;;;;;;;5104939;27;20490;-45
2023/08/04 04:17:03;;;;;;;9.37;2.83;;;;;;;;;;5101878;27;20288;-45
2023/08/04 04:19:28;;;;;;;3.97;2.58;;;;;;;;;;5106270;27;20312;-46
2023/08/04 04:21:53;;;;;;;5.63;2.87;;;;;;;;;;5105184;28;20026;-46
2023/08/04 04:24:18;;;;;;;7.70;2.80;;;;;;;;;;5108116;27;20776;-46
2023/08/04 04:26:44;;;;;;;4.07;2.10;;;;;;;;;;5098457;28;20046;-45
2023/08/04 04:29:09;;;;;;;7.07;2.95;;;;;;;;;;5103689;28;20023;-45
2023/08/04 04:31:36;;;;;;;3.75;2.50;;;;;;;;;;5110183;27;20027;-45
2023/08/04 04:34:02;;;;;;;7.03;3.05;;;;;;;;;;5087457;28;20020;-45
2023/08/04 04:36:27;;;;;;;4.70;2.47;;;;;;;;;;5090200;28;22232;-46
2023/08/04 04:38:52;;;;;;;14.77;3.03;;;;;;;;;;5099342;27;20066;-45
2023/08/04 04:41:17;;;;;;;4.70;2.40;;;;;;;;;;5104296;28;20308;-46
2023/08/04 04:43:43;;;;;;;12.23;3.33;;;;;;;;;;5108044;28;20482;-46
2023/08/04 04:46:09;;;;;;;5.60;2.60;;;;;;;;;;5089075;28;20024;-46
2023/08/04 04:48:35;;;;;;;5.18;2.40;;;;;;;;;;5101693;28;20030;-45
2023/08/04 04:51:00;;;;;;;5.70;2.50;;;;;;;;;;5111694;28;20019;-46
2023/08/04 04:53:25;;;;;;;7.13;2.03;;;;;;;;;;5099488;28;20549;-46
2023/08/04 04:55:50;;;;;;;4.73;2.27;;;;;;;;;;5104832;28;20147;-45
2023/08/04 04:58:16;;;;;;;5.23;2.20;;;;;;;;;;5105829;28;20016;-45
2023/08/04 05:00:42;;;;;;;5.18;2.15;;;;;;;;;;5107467;28;20023;-47
2023/08/04 05:03:08;;;;;;;5.47;2.45;;;;;;;;;;5112590;28;20078;-45
2023/08/04 05:05:34;;;;;;;6.70;2.15;;;;;;;;;;5107128;28;20024;-46
2023/08/04 05:08:00;;;;;;;4.72;2.78;;;;;;;;;;5109267;28;20042;-46
2023/08/04 05:10:25;;;;;;;5.63;2.53;;;;;;;;;;5095576;28;20024;-48
2023/08/04 05:12:51;;;;;;;5.15;2.53;;;;;;;;;;5098133;28;20758;-46
2023/08/04 05:15:16;;;;;;;4.23;2.80;;;;;;;;;;5107856;27;20106;-48
2023/08/04 05:17:41;;;;;;;8.05;2.47;;;;;;;;;;5107122;27;20474;-45
2023/08/04 05:20:07;;;;;;;5.70;3.07;;;;;;;;;;5109074;27;20020;-45
2023/08/04 05:22:32;;;;;;;8.43;3.20;;;;;;;;;;5111434;27;20047;-45
2023/08/04 05:24:57;;;;;;;4.23;2.90;;;;;;;;;;5096776;27;20026;-45
2023/08/04 05:27:22;;;;;;;7.37;2.90;;;;;;;;;;5093653;27;20522;-46
2023/08/04 05:29:48;;;;;;;8.70;2.97;;;;;;;;;;5108693;27;20301;-46
2023/08/04 05:32:13;;;;;;;12.33;3.63;;;;;;;;;;5094686;27;20512;-46
2023/08/04 05:34:38;;;;;;;7.22;3.85;;;;;;;;;;5102450;27;20035;-45
2023/08/04 05:37:04;;;;;;;9.47;3.80;;;;;;;;;;5100503;27;20111;-45
2023/08/04 05:39:29;;;;;;;5.63;3.28;;;;;;;;;;5092144;27;20500;-48
2023/08/04 05:41:54;;;;;;;7.87;3.67;;;;;;;;;;5105554;27;21017;-46
2023/08/04 05:44:22;;;;;;;10.27;3.97;;;;;;;;;;5112783;27;20286;-46
2023/08/04 05:46:47;;;;;;;9.60;4.55;;;;;;;;;;5110043;27;20104;-46
2023/08/04 05:49:12;;;;;;;6.80;4.17;;;;;;;;;;5110489;27;20379;-48
2023/08/04 05:51:37;;;;;;;10.60;3.73;;;;;;;;;;5108590;27;20314;-45
2023/08/04 05:54:03;;;;;;;9.33;4.30;;;;;;;;;;5111295;27;20091;-45
2023/08/04 05:56:28;;;;;;;7.27;3.23;;;;;;;;;;5097425;27;20061;-45
2023/08/04 05:58:53;;;;;;;7.37;3.67;;;;;;;;;;5100003;27;20393;-46
2023/08/04 06:01:19;;;;;;;9.37;3.33;;;;;;;;;;5098643;27;20288;-46
2023/08/04 06:03:44;;;;;;;9.25;3.45;;;;;;;;;;5101353;27;20377;-46
2023/08/04 06:06:09;;;;;;;7.32;3.70;;;;;;;;;;5099358;27;20020;-46
2023/08/04 06:08:35;;;;;;;12.05;4.10;;;;;;;;;;5102054;27;20027;-45
2023/08/04 06:11:00;;;;;;;9.57;3.60;;;;;;;;;;5105261;27;20047;-46
2023/08/04 06:13:25;;;;;;;9.43;3.67;;;;;;;;;;5082028;27;20027;-45
2023/08/04 06:15:50;;;;;;;10.32;4.68;;;;;;;;;;5102740;27;20046;-45
2023/08/04 06:18:16;;;;;;;10.17;4.90;;;;;;;;;;5102941;27;20374;-46
2023/08/04 06:20:41;;;;;;;10.63;3.63;;;;;;;;;;5100858;27;20276;-46
2023/08/04 06:23:06;;;;;;;8.95;3.70;;;;;;;;;;5108780;27;20034;-45
2023/08/04 06:25:32;;;;;;;9.55;3.63;;;;;;;;;;5096712;27;20015;-45
2023/08/04 06:27:57;;;;;;;6.43;3.17;;;;;;;;;;5095588;27;20027;-46
2023/08/04 06:30:22;;;;;;;9.38;3.65;;;;;;;;;;5106307;27;20051;-47
2023/08/04 06:32:49;;;;;;;7.38;3.67;;;;;;;;;;5093583;27;20143;-46
2023/08/04 06:35:14;;;;;;;6.60;3.75;;;;;;;;;;5105447;27;20536;-46
2023/08/04 06:37:40;;;;;;;12.10;4.05;;;;;;;;;;5104084;27;20035;-46
2023/08/04 06:40:05;;;;;;;12.30;3.53;;;;;;;;;;5102622;27;20028;-46
2023/08/04 06:42:31;;;;;;;8.27;4.07;;;;;;;;;;5092816;27;20331;-47
2023/08/04 06:44:56;;;;;;;7.00;3.75;;;;;;;;;;5102054;27;23809;-46
2023/08/04 06:47:21;;;;;;;8.60;3.37;;;;;;;;;;5094085;27;21588;-45
2023/08/04 06:49:46;;;;;;;8.33;3.27;;;;;;;;;;5101706;27;20030;-47
2023/08/04 06:52:14;;;;;;;6.87;3.43;;;;;;;;;;5102146;27;20273;-46
2023/08/04 06:54:39;;;;;;;8.73;3.67;;;;;;;;;;5109151;27;20281;-45
2023/08/04 06:57:05;;;;;;;13.65;3.55;;;;;;;;;;5107186;27;20027;-46
2023/08/04 06:59:30;;;;;;;7.03;2.75;;;;;;;;;;5101791;27;20035;-47
2023/08/04 07:01:55;;;;;;;5.18;2.35;;;;;;;;;;5108801;27;21783;-45
2023/08/04 07:04:21;;;;;;;8.73;3.13;;;;;;;;;;5100799;27;20023;-45
2023/08/04 07:06:46;;;;;;;8.35;2.97;;;;;;;;;;5095962;27;20320;-46
2023/08/04 07:09:11;;;;;;;10.23;3.40;;;;;;;;;;5101198;28;21046;-48
2023/08/04 07:11:37;;;;;;;7.95;3.50;;;;;;;;;;5096198;27;20028;-45
2023/08/04 07:14:02;;;;;;;11.63;4.00;;;;;;;;;;5092935;27;20020;-45
2023/08/04 07:16:27;;;;;;;14.93;3.63;;;;;;;;;;5097595;27;20023;-45
2023/08/04 07:18:53;;;;;;;7.63;3.00;;;;;;;;;;5093687;27;20023;-46
2023/08/04 07:21:18;;;;;;;7.63;3.38;;;;;;;;;;5109205;27;20277;-46
2023/08/04 07:23:43;;;;;;;15.73;4.53;;;;;;;;;;5109776;27;20019;-46
2023/08/04 07:26:09;;;;;;;14.77;4.07;;;;;;;;;;5092332;27;20323;-45
2023/08/04 07:28:35;;;;;;;11.48;3.80;;;;;;;;;;5099474;27;20130;-45
2023/08/04 07:31:04;;;;;;;6.30;3.08;;;;;;;;;;5091480;27;20114;-45
2023/08/04 07:33:29;;;;;;;7.60;3.25;;;;;;;;;;5089686;27;20024;-45
2023/08/04 07:35:55;;;;;;;9.32;3.40;;;;;;;;;;5103158;27;20031;-45
2023/08/04 07:38:21;;;;;;;9.05;3.30;;;;;;;;;;5102176;27;20024;-45
2023/08/04 07:40:47;;;;;;;8.15;3.63;;;;;;;;;;5100197;27;20482;-48
2023/08/04 07:43:13;;;;;;;11.18;3.60;;;;;;;;;;5101285;27;20490;-46
2023/08/04 07:45:39;;;;;;;8.85;3.28;;;;;;;;;;5107503;27;20019;-45
2023/08/04 07:48:04;;;;;;;6.65;2.67;;;;;;;;;;5103134;28;20115;-46
2023/08/04 07:50:29;;;;;;;6.00;2.60;;;;;;;;;;5101437;27;20030;-46
2023/08/04 07:52:55;;;;;;;8.57;2.83;;;;;;;;;;5102904;27;20374;-45
2023/08/04 07:55:20;;;;;;;7.33;2.93;;;;;;;;;;5108380;27;20034;-46
2023/08/04 07:57:45;;;;;;;5.83;2.70;;;;;;;;;;5111805;27;20317;-46
2023/08/04 08:00:11;;;;;;;7.28;2.50;;;;;;;;;;5092797;28;20035;-46
2023/08/04 08:02:36;;;;;;;8.73;2.58;;;;;;;;;;5108532;27;20032;-45
2023/08/04 08:05:02;;;;;;;7.77;2.90;;;;;;;;;;5109972;27;20031;-46
2023/08/04 08:07:27;;;;;;;6.75;2.15;;;;;;;;;;5098474;27;20361;-46
2023/08/04 08:09:52;;;;;;;10.07;3.03;;;;;;;;;;5092752;27;20027;-46
2023/08/04 08:12:18;;;;;;;9.50;3.30;;;;;;;;;;5110661;27;20083;-48
2023/08/04 08:14:43;;;;;;;6.30;3.10;;;;;;;;;;5088371;28;20265;-46
2023/08/04 08:17:09;;;;;;;7.93;2.87;;;;;;;;;;5109433;27;20163;-46
2023/08/04 08:19:34;;;;;;;8.13;2.88;;;;;;;;;;5107317;27;20265;-46
2023/08/04 08:22:00;;;;;;;6.90;2.97;;;;;;;;;;5107127;27;20023;-46
2023/08/04 08:24:25;;;;;;;8.23;3.03;;;;;;;;;;5105557;27;20812;-46
2023/08/04 08:26:50;;;;;;;7.23;2.90;;;;;;;;;;5099408;27;20032;-45
2023/08/04 08:29:15;;;;;;;7.67;2.50;;;;;;;;;;5105878;28;20016;-46
2023/08/04 08:31:41;;;;;;;5.83;1.83;;;;;;;;;;5104525;28;20125;-45
2023/08/04 08:34:06;;;;;;;7.28;2.53;;;;;;;;;;5107798;27;20691;-46
2023/08/04 08:36:31;;;;;;;5.82;1.88;;;;;;;;;;5107617;28;20042;-45
2023/08/04 08:38:57;;;;;;;4.87;2.10;;;;;;;;;;5107793;27;20046;-45
2023/08/04 08:41:23;;;;;;;5.53;2.50;;;;;;;;;;5103651;28;20015;-46
2023/08/04 08:43:48;;;;;;;4.40;1.65;;;;;;;;;;5106117;28;20103;-46
2023/08/04 08:46:14;;;;;;;2.35;1.40;;;;;;;;;;5100332;28;20339;-46
2023/08/04 08:48:43;;;;;;;4.43;1.95;;;;;;;;;;5098157;28;20102;-46
2023/08/04 08:51:12;;;;;;;4.57;1.80;;;;;;;;;;5110860;27;20031;-45
2023/08/04 08:53:38;;;;;;;7.85;2.67;;;;;;;;;;5100788;27;20024;-46
2023/08/04 08:56:04;;;;;;;6.18;2.00;;;;;;;;;;5105048;27;20023;-46
2023/08/04 08:58:30;;;;;;;4.85;1.70;;;;;;;;;;5098156;28;20073;-45
2023/08/04 09:00:55;;;;;;;3.55;1.83;;;;;;;;;;5112637;27;20388;-46
2023/08/04 09:03:21;;;;;;;2.90;1.60;;;;;;;;;;5113030;27;20493;-45
2023/08/04 09:05:46;;;;;;;2.95;1.60;;;;;;;;;;5113393;27;20253;-46
2023/08/04 09:08:11;;;;;;;4.22;1.42;;;;;;;;;;5111613;27;20607;-46
2023/08/04 09:10:38;;;;;;;3.93;1.33;;;;;;;;;;5112150;27;20047;-46
2023/08/04 09:13:07;;;;;;;5.43;1.90;;;;;;;;;;5118424;27;20826;-46
2023/08/04 09:15:33;;;;;;;8.90;2.05;;;;;;;;;;5102158;27;20023;-46
2023/08/04 09:17:58;;;;;;;4.82;1.67;;;;;;;;;;5112461;27;20549;-46
2023/08/04 09:20:28;;;;;;;5.07;1.55;;;;;;;;;;5099289;27;20051;-46
2023/08/04 09:22:53;;;;;;;5.72;2.08;;;;;;;;;;5111569;27;20031;-46
2023/08/04 09:25:19;;;;;;;4.15;1.50;;;;;;;;;;5113483;27;20018;-46
2023/08/04 09:27:49;;;;;;;2.58;1.00;;;;;;;;;;5108777;27;20032;-46
2023/08/04 09:30:15;;;;;;;2.50;1.25;;;;;;;;;;5109582;27;20036;-46
2023/08/04 09:32:44;;;;;;;4.78;1.85;;;;;;;;;;5101233;27;20034;-47
2023/08/04 09:35:09;;;;;;;7.70;2.30;;;;;;;;;;5103456;27;23304;-46
2023/08/04 09:37:35;;;;;;;5.05;1.90;;;;;;;;;;5103423;27;20039;-45
2023/08/04 09:40:05;;;;;;;7.15;2.08;;;;;;;;;;5108037;27;20016;-45
2023/08/04 09:42:31;;;;;;;5.65;2.03;;;;;;;;;;5106584;27;20410;-46
2023/08/04 09:44:56;;;;;;;4.95;1.92;;;;;;;;;;5107560;28;20032;-46
2023/08/04 09:47:26;;;;;;;8.07;1.85;;;;;;;;;;5109902;27;20023;-47
2023/08/04 09:49:52;;;;;;;4.22;1.33;;;;;;;;;;5104647;27;20031;-45
2023/08/04 09:52:22;;;;;;;5.07;2.30;;;;;;;;;;5105234;27;20015;-46
2023/08/04 09:54:47;;;;;;;4.90;1.77;;;;;;;;;;5106396;28;20081;-46
2023/08/04 09:57:16;;;;;;;5.93;2.10;;;;;;;;;;5108636;27;20015;-46
2023/08/04 09:59:41;;;;;;;5.20;1.80;;;;;;;;;;5102292;27;20371;-46
2023/08/04 10:02:08;;;;;;;6.33;2.00;;;;;;;;;;5105905;27;20529;-46
2023/08/04 10:04:33;;;;;;;6.15;1.92;;;;;;;;;;5105470;27;20861;-46
2023/08/04 10:06:59;;;;;;;2.88;1.58;;;;;;;;;;5109348;27;20776;-45
2023/08/04 10:09:25;;;;;;;4.05;1.80;;;;;;;;;;5110260;27;20053;-48
2023/08/04 10:11:51;;;;;;;6.05;2.10;;;;;;;;;;5110382;27;20108;-45
2023/08/04 10:14:16;;;;;;;3.97;1.80;;;;;;;;;;5101364;27;20111;-45
2023/08/04 10:16:43;;;;;;;5.75;1.73;;;;;;;;;;5108894;27;20039;-45
2023/08/04 10:19:10;;;;;;;4.15;0.98;;;;;;;;;;5107444;27;20061;-48
2023/08/04 10:21:38;;;;;;;4.18;2.08;;;;;;;;;;5107021;27;20416;-46
2023/08/04 10:24:06;;;;;;;4.10;1.92;;;;;;;;;;5104500;27;20024;-46
2023/08/04 10:26:32;;;;;;;4.82;1.77;;;;;;;;;;5111538;27;20043;-47
2023/08/04 10:29:01;;;;;;;4.85;1.80;;;;;;;;;;5109107;27;20466;-46
2023/08/04 10:31:41;;;;;;;3.80;1.83;;;;;;;;;;5101644;27;20107;-46
2023/08/04 10:34:16;;;;;;;6.35;1.98;;;;;;;;;;5089683;28;20153;-45
2023/08/04 10:36:55;;;;;;;10.52;2.17;;;;;;;;;;5102941;27;20031;-46
2023/08/04 10:39:27;;;;;;;7.68;2.00;;;;;;;;;;5106663;27;20023;-46
2023/08/04 10:41:52;;;;;;;9.15;1.92;;;;;;;;;;5100671;27;20402;-46
2023/08/04 10:44:18;;;;;;;6.43;2.05;;;;;;;;;;5106800;27;20024;-45
2023/08/04 10:46:43;;;;;;;2.70;1.67;;;;;;;;;;5101582;27;20089;-45
2023/08/04 10:49:08;;;;;;;3.72;1.90;;;;;;;;;;5104268;27;20275;-48
2023/08/04 10:51:34;;;;;;;6.77;1.90;;;;;;;;;;5109438;27;20035;-46
2023/08/04 10:54:00;;;;;;;5.47;1.80;;;;;;;;;;5108914;27;20261;-46
2023/08/04 10:56:25;;;;;;;4.00;1.42;;;;;;;;;;5110662;27;20020;-46
2023/08/04 10:58:50;;;;;;;5.63;2.43;;;;;;;;;;5098238;27;20440;-46
2023/08/04 11:01:16;;;;;;;3.87;2.00;;;;;;;;;;5098966;27;20020;-46
2023/08/04 11:03:46;;;;;;;4.82;1.88;;;;;;;;;;5091646;27;20081;-46
2023/08/04 11:06:12;;;;;;;4.18;1.67;;;;;;;;;;5095682;27;20024;-48
2023/08/04 11:08:37;;;;;;;3.17;1.60;;;;;;;;;;5102569;27;20085;-46
2023/08/04 11:11:03;;;;;;;4.15;1.77;;;;;;;;;;5105226;27;20343;-46
2023/08/04 11:13:28;;;;;;;5.85;1.98;;;;;;;;;;5107147;27;20637;-46
2023/08/04 11:15:53;;;;;;;4.72;2.05;;;;;;;;;;5102902;27;20015;-46
2023/08/04 11:18:22;;;;;;;3.67;1.85;;;;;;;;;;5107467;27;20023;-46
2023/08/04 11:20:47;;;;;;;4.55;1.77;;;;;;;;;;5106981;27;20107;-47
2023/08/04 11:23:13;;;;;;;3.67;1.60;;;;;;;;;;5103016;27;20126;-46
2023/08/04 11:25:39;;;;;;;4.68;2.05;;;;;;;;;;5100918;27;20774;-46
2023/08/04 11:28:04;;;;;;;5.18;1.90;;;;;;;;;;5099077;27;20520;-46
2023/08/04 11:30:31;;;;;;;5.10;1.85;;;;;;;;;;5100094;28;20057;-46
2023/08/04 11:32:56;;;;;;;6.10;1.60;;;;;;;;;;5092335;27;20027;-46
2023/08/04 11:35:22;;;;;;;4.27;1.70;;;;;;;;;;5094020;27;20030;-45
2023/08/04 11:37:47;;;;;;;6.88;1.92;;;;;;;;;;5102951;27;20338;-47
2023/08/04 11:40:22;;;;;;;5.07;1.50;;;;;;;;;;5106263;27;20020;-45
2023/08/04 11:42:47;;;;;;;5.38;2.13;;;;;;;;;;5092616;27;20843;-46
2023/08/04 11:45:13;;;;;;;5.78;1.63;;;;;;;;;;5105205;27;20121;-47
2023/08/04 11:47:38;;;;;;;6.10;1.58;;;;;;;;;;5101772;27;20106;-46
2023/08/04 11:50:04;;;;;;;4.35;1.90;;;;;;;;;;5108862;27;20035;-46
2023/08/04 11:52:29;;;;;;;4.88;1.50;;;;;;;;;;5099574;27;20030;-45
2023/08/04 11:54:57;;;;;;;5.45;1.80;;;;;;;;;;5104988;27;20047;-46
2023/08/04 11:57:22;;;;;;;5.63;1.70;;;;;;;;;;5105269;27;20035;-48
2023/08/04 11:59:51;;;;;;;2.92;1.50;;;;;;;;;;5111748;27;20024;-48
2023/08/04 12:02:16;;;;;;;6.97;1.30;;;;;;;;;;5088726;27;20050;-46
2023/08/04 12:04:42;;;;;;;2.65;1.25;;;;;;;;;;5113770;27;20390;-46
2023/08/04 12:07:07;;;;;;;5.05;1.70;;;;;;;;;;5107170;27;20024;-46
2023/08/04 12:09:33;;;;;;;2.85;1.27;;;;;;;;;;5112419;27;20028;-46
2023/08/04 12:11:59;;;;;;;5.05;2.08;;;;;;;;;;5110771;27;20039;-48
2023/08/04 12:14:24;;;;;;;7.47;1.30;;;;;;;;;;5089866;28;20020;-45
2023/08/04 12:16:55;;;;;;;2.65;1.15;;;;;;;;;;5097402;27;20016;-46
2023/08/04 12:19:22;;;;;;;4.03;1.15;;;;;;;;;;5108747;27;20126;-45
2023/08/04 12:21:49;;;;;;;8.55;1.75;;;;;;;;;;5106920;27;20363;-46
2023/08/04 12:24:14;;;;;;;7.95;2.08;;;;;;;;;;5109492;27;20502;-47
2023/08/04 12:26:40;;;;;;;3.70;1.40;;;;;;;;;;5108929;27;20109;-46
2023/08/04 12:29:05;;;;;;;4.28;1.40;;;;;;;;;;5110003;27;20031;-47
2023/08/04 12:31:30;;;;;;;4.13;1.30;;;;;;;;;;5099480;27;20020;-46
2023/08/04 12:33:55;;;;;;;5.25;1.70;;;;;;;;;;5103128;28;20318;-46
2023/08/04 12:36:21;;;;;;;3.27;1.30;;;;;;;;;;5110762;27;20020;-46
2023/08/04 12:38:46;;;;;;;4.40;1.27;;;;;;;;;;5110112;27;20034;-46
2023/08/04 12:41:12;;;;;;;3.77;1.10;;;;;;;;;;5106543;27;20027;-47
2023/08/04 12:43:37;;;;;;;4.82;1.70;;;;;;;;;;5111062;28;20016;-45
2023/08/04 12:46:02;;;;;;;3.90;1.48;;;;;;;;;;5107881;28;20217;-46
2023/08/04 12:48:28;;;;;;;4.00;2.20;;;;;;;;;;5099822;28;20118;-46
2023/08/04 12:50:54;;;;;;;4.85;1.33;;;;;;;;;;5105187;28;20024;-47
2023/08/04 12:53:19;;;;;;;4.93;1.25;;;;;;;;;;5097869;28;20096;-46
2023/08/04 12:55:44;;;;;;;4.67;1.50;;;;;;;;;;5109463;28;20478;-46
2023/08/04 12:58:09;;;;;;;3.93;1.40;;;;;;;;;;5105482;28;20027;-46
2023/08/04 13:00:35;;;;;;;7.10;1.63;;;;;;;;;;5104715;28;20051;-46
2023/08/04 13:03:00;;;;;;;2.33;1.20;;;;;;;;;;5101771;28;20062;-48
2023/08/04 13:05:25;;;;;;;3.30;1.07;;;;;;;;;;5102867;28;20058;-46
2023/08/04 13:07:50;;;;;;;5.20;1.60;;;;;;;;;;5098773;28;20269;-46
2023/08/04 13:10:16;;;;;;;5.13;1.50;;;;;;;;;;5107059;28;20051;-46
2023/08/04 13:12:41;;;;;;;6.13;1.20;;;;;;;;;;5108330;28;20024;-46
2023/08/04 13:15:07;;;;;;;4.97;1.45;;;;;;;;;;5107172;28;20361;-46
2023/08/04 13:17:32;;;;;;;7.45;1.58;;;;;;;;;;5108651;28;20058;-48
2023/08/04 13:19:57;;;;;;;3.55;1.70;;;;;;;;;;5096712;28;20023;-46
2023/08/04 13:22:23;;;;;;;1.97;0.97;;;;;;;;;;5101343;28;20028;-47
2023/08/04 13:24:49;;;;;;;3.00;1.30;;;;;;;;;;5108183;28;20778;-46
2023/08/04 13:27:14;;;;;;;3.08;1.40;;;;;;;;;;5099581;28;20046;-45
2023/08/04 13:29:39;;;;;;;3.43;1.03;;;;;;;;;;5107664;28;20480;-47
2023/08/04 13:32:06;;;;;;;5.30;1.50;;;;;;;;;;5089782;28;20309;-46
2023/08/04 13:34:31;;;;;;;5.20;1.50;;;;;;;;;;5104226;28;20482;-46
2023/08/04 13:36:56;;;;;;;4.55;1.42;;;;;;;;;;5111367;27;20032;-46
2023/08/04 13:39:23;;;;;;;2.57;1.17;;;;;;;;;;5112927;27;20390;-46
2023/08/04 13:41:48;;;;;;;4.30;1.55;;;;;;;;;;5112068;27;20085;-46
2023/08/04 13:44:13;;;;;;;2.63;1.37;;;;;;;;;;5105872;27;20028;-46
2023/08/04 13:46:39;;;;;;;3.13;1.27;;;;;;;;;;5104170;27;20081;-45
2023/08/04 13:49:04;;;;;;;4.28;1.48;;;;;;;;;;5110055;27;20035;-46
2023/08/04 13:51:30;;;;;;;3.73;1.57;;;;;;;;;;5109147;27;20034;-45
2023/08/04 13:53:55;;;;;;;5.37;1.40;;;;;;;;;;5089708;27;20023;-48
2023/08/04 13:56:20;;;;;;;5.07;1.52;;;;;;;;;;5112504;27;20030;-46
2023/08/04 13:58:48;;;;;;;5.17;1.57;;;;;;;;;;5104674;27;20539;-46
2023/08/04 14:01:16;;;;;;;6.28;1.30;;;;;;;;;;5105614;27;20662;-47
2023/08/04 14:03:42;;;;;;;2.42;0.90;;;;;;;;;;5115885;27;20016;-46
2023/08/04 14:06:07;;;;;;;2.70;0.90;;;;;;;;;;5097940;27;20024;-46
2023/08/04 14:08:32;;;;;;;3.13;1.20;;;;;;;;;;5110635;27;20694;-46
2023/08/04 14:10:57;;;;;;;2.73;1.30;;;;;;;;;;5106491;27;20027;-45
2023/08/04 14:13:23;;;;;;;2.50;1.30;;;;;;;;;;5110292;27;20016;-46
2023/08/04 14:15:48;;;;;;;5.88;1.23;;;;;;;;;;5112238;27;20027;-49
2023/08/04 14:18:14;;;;;;;4.37;1.37;;;;;;;;;;5103596;27;20056;-46
2023/08/04 14:20:39;;;;;;;3.13;0.77;;;;;;;;;;5102189;27;20274;-45
2023/08/04 14:23:04;;;;;;;1.70;1.02;;;;;;;;;;5107230;27;20621;-46
2023/08/04 14:25:30;;;;;;;5.40;1.50;;;;;;;;;;5109897;27;20019;-45
2023/08/04 14:27:55;;;;;;;3.10;1.92;;;;;;;;;;5109918;27;20043;-51
2023/08/04 14:30:20;;;;;;;2.40;0.77;;;;;;;;;;5096948;27;20517;-47
2023/08/04 14:32:46;;;;;;;4.53;1.10;;;;;;;;;;5107117;27;20016;-46
2023/08/04 14:35:11;;;;;;;3.75;1.20;;;;;;;;;;5107482;27;20394;-46